sensor_id;sensor_type;location;lat;lon;timestamp;P1;durP1;ratioP1;P2;durP2;ratioP2
3845;SDS011;1938;50.812;7.738;2022-07-19T00:00:01;3.47;;;2.37;;
3845;SDS011;1938;50.812;7.738;2022-07-19T00:02:29;5.27;;;2.47;;
3845;SDS011;1938;50.812;7.738;2022-07-19T00:04:55;6.23;;;2.30;;
3845;SDS011;1938;50.812;7.738;2022-07-19T00:07:20;3.53;;;2.50;;
3845;SDS011;1938;50.812;7.738;2022-07-19T00:09:46;4.30;;;2.27;;
3845;SDS011;1938;50.812;7.738;2022-07-19T00:12:12;6.63;;;3.03;;
3845;SDS011;1938;50.812;7.738;2022-07-19T00:14:38;4.90;;;2.40;;
3845;SDS011;1938;50.812;7.738;2022-07-19T00:17:05;11.00;;;2.67;;
3845;SDS011;1938;50.812;7.738;2022-07-19T00:19:30;4.73;;;2.20;;
3845;SDS011;1938;50.812;7.738;2022-07-19T00:21:59;6.57;;;3.40;;
3845;SDS011;1938;50.812;7.738;2022-07-19T00:24:24;9.57;;;2.87;;
3845;SDS011;1938;50.812;7.738;2022-07-19T00:26:50;10.33;;;2.80;;
3845;SDS011;1938;50.812;7.738;2022-07-19T00:29:15;5.87;;;3.07;;
3845;SDS011;1938;50.812;7.738;2022-07-19T00:31:41;5.37;;;2.40;;
3845;SDS011;1938;50.812;7.738;2022-07-19T00:34:07;4.97;;;2.70;;
3845;SDS011;1938;50.812;7.738;2022-07-19T00:36:33;4.00;;;2.63;;
3845;SDS011;1938;50.812;7.738;2022-07-19T00:38:59;6.30;;;3.20;;
3845;SDS011;1938;50.812;7.738;2022-07-19T00:41:24;4.83;;;2.50;;
3845;SDS011;1938;50.812;7.738;2022-07-19T00:43:50;4.97;;;3.10;;
3845;SDS011;1938;50.812;7.738;2022-07-19T00:46:17;6.60;;;3.00;;
3845;SDS011;1938;50.812;7.738;2022-07-19T00:48:44;5.00;;;2.97;;
3845;SDS011;1938;50.812;7.738;2022-07-19T00:51:14;7.33;;;3.23;;
3845;SDS011;1938;50.812;7.738;2022-07-19T00:53:41;6.83;;;2.93;;
3845;SDS011;1938;50.812;7.738;2022-07-19T00:56:08;5.17;;;2.70;;
3845;SDS011;1938;50.812;7.738;2022-07-19T00:58:37;9.47;;;3.13;;
3845;SDS011;1938;50.812;7.738;2022-07-19T01:01:04;7.40;;;2.83;;
3845;SDS011;1938;50.812;7.738;2022-07-19T01:03:35;4.50;;;3.30;;
3845;SDS011;1938;50.812;7.738;2022-07-19T01:06:03;5.10;;;2.93;;
3845;SDS011;1938;50.812;7.738;2022-07-19T01:08:29;6.10;;;3.27;;
3845;SDS011;1938;50.812;7.738;2022-07-19T01:10:54;5.97;;;2.90;;
3845;SDS011;1938;50.812;7.738;2022-07-19T01:13:20;7.50;;;3.63;;
3845;SDS011;1938;50.812;7.738;2022-07-19T01:15:46;6.00;;;3.20;;
3845;SDS011;1938;50.812;7.738;2022-07-19T01:18:11;6.63;;;3.17;;
3845;SDS011;1938;50.812;7.738;2022-07-19T01:20:37;5.10;;;3.50;;
3845;SDS011;1938;50.812;7.738;2022-07-19T01:23:02;5.33;;;3.33;;
3845;SDS011;1938;50.812;7.738;2022-07-19T01:25:29;5.60;;;3.07;;
3845;SDS011;1938;50.812;7.738;2022-07-19T01:27:58;10.63;;;2.97;;
3845;SDS011;1938;50.812;7.738;2022-07-19T01:30:24;8.97;;;3.10;;
3845;SDS011;1938;50.812;7.738;2022-07-19T01:32:51;5.37;;;3.17;;
3845;SDS011;1938;50.812;7.738;2022-07-19T01:35:17;4.70;;;2.87;;
3845;SDS011;1938;50.812;7.738;2022-07-19T01:37:43;4.90;;;2.57;;
3845;SDS011;1938;50.812;7.738;2022-07-19T01:40:10;6.50;;;3.20;;
3845;SDS011;1938;50.812;7.738;2022-07-19T01:42:38;8.97;;;3.37;;
3845;SDS011;1938;50.812;7.738;2022-07-19T01:45:04;7.57;;;3.43;;
3845;SDS011;1938;50.812;7.738;2022-07-19T01:47:31;6.53;;;3.00;;
3845;SDS011;1938;50.812;7.738;2022-07-19T01:49:57;6.67;;;3.00;;
3845;SDS011;1938;50.812;7.738;2022-07-19T01:52:22;4.43;;;2.90;;
3845;SDS011;1938;50.812;7.738;2022-07-19T01:54:48;5.40;;;2.70;;
3845;SDS011;1938;50.812;7.738;2022-07-19T01:57:13;4.93;;;3.20;;
3845;SDS011;1938;50.812;7.738;2022-07-19T01:59:39;3.63;;;2.63;;
3845;SDS011;1938;50.812;7.738;2022-07-19T02:02:05;5.60;;;3.03;;
3845;SDS011;1938;50.812;7.738;2022-07-19T02:04:31;6.50;;;2.83;;
3845;SDS011;1938;50.812;7.738;2022-07-19T02:06:57;5.23;;;2.87;;
3845;SDS011;1938;50.812;7.738;2022-07-19T02:09:22;8.23;;;3.10;;
3845;SDS011;1938;50.812;7.738;2022-07-19T02:11:48;6.77;;;3.00;;
3845;SDS011;1938;50.812;7.738;2022-07-19T02:14:13;5.43;;;3.10;;
3845;SDS011;1938;50.812;7.738;2022-07-19T02:16:39;3.97;;;2.77;;
3845;SDS011;1938;50.812;7.738;2022-07-19T02:19:05;4.40;;;2.77;;
3845;SDS011;1938;50.812;7.738;2022-07-19T02:21:32;9.33;;;3.27;;
3845;SDS011;1938;50.812;7.738;2022-07-19T02:23:59;6.03;;;3.47;;
3845;SDS011;1938;50.812;7.738;2022-07-19T02:26:24;5.47;;;3.07;;
3845;SDS011;1938;50.812;7.738;2022-07-19T02:28:50;9.13;;;2.90;;
3845;SDS011;1938;50.812;7.738;2022-07-19T02:31:16;4.37;;;2.80;;
3845;SDS011;1938;50.812;7.738;2022-07-19T02:33:41;17.60;;;3.77;;
3845;SDS011;1938;50.812;7.738;2022-07-19T02:36:07;8.73;;;3.40;;
3845;SDS011;1938;50.812;7.738;2022-07-19T02:38:33;6.13;;;3.00;;
3845;SDS011;1938;50.812;7.738;2022-07-19T02:40:59;6.40;;;2.57;;
3845;SDS011;1938;50.812;7.738;2022-07-19T02:43:25;5.53;;;3.00;;
3845;SDS011;1938;50.812;7.738;2022-07-19T02:45:51;7.07;;;3.47;;
3845;SDS011;1938;50.812;7.738;2022-07-19T02:48:17;5.03;;;2.60;;
3845;SDS011;1938;50.812;7.738;2022-07-19T02:50:42;8.90;;;3.43;;
3845;SDS011;1938;50.812;7.738;2022-07-19T02:53:08;9.03;;;2.40;;
3845;SDS011;1938;50.812;7.738;2022-07-19T02:55:33;10.20;;;2.77;;
3845;SDS011;1938;50.812;7.738;2022-07-19T02:57:59;5.07;;;2.80;;
3845;SDS011;1938;50.812;7.738;2022-07-19T03:00:25;7.97;;;2.73;;
3845;SDS011;1938;50.812;7.738;2022-07-19T03:02:51;16.33;;;3.30;;
3845;SDS011;1938;50.812;7.738;2022-07-19T03:05:16;3.53;;;2.83;;
3845;SDS011;1938;50.812;7.738;2022-07-19T03:07:42;6.40;;;3.47;;
3845;SDS011;1938;50.812;7.738;2022-07-19T03:10:08;4.40;;;3.07;;
3845;SDS011;1938;50.812;7.738;2022-07-19T03:12:34;6.60;;;3.77;;
3845;SDS011;1938;50.812;7.738;2022-07-19T03:15:00;6.30;;;3.10;;
3845;SDS011;1938;50.812;7.738;2022-07-19T03:17:25;5.67;;;3.27;;
3845;SDS011;1938;50.812;7.738;2022-07-19T03:19:51;8.10;;;3.17;;
3845;SDS011;1938;50.812;7.738;2022-07-19T03:22:17;8.10;;;3.50;;
3845;SDS011;1938;50.812;7.738;2022-07-19T03:24:42;6.07;;;3.23;;
3845;SDS011;1938;50.812;7.738;2022-07-19T03:27:08;6.53;;;2.80;;
3845;SDS011;1938;50.812;7.738;2022-07-19T03:29:34;7.27;;;2.90;;
3845;SDS011;1938;50.812;7.738;2022-07-19T03:32:00;8.23;;;3.30;;
3845;SDS011;1938;50.812;7.738;2022-07-19T03:34:26;7.00;;;3.90;;
3845;SDS011;1938;50.812;7.738;2022-07-19T03:36:53;16.23;;;3.70;;
3845;SDS011;1938;50.812;7.738;2022-07-19T03:39:19;4.90;;;2.97;;
3845;SDS011;1938;50.812;7.738;2022-07-19T03:41:45;5.07;;;3.27;;
3845;SDS011;1938;50.812;7.738;2022-07-19T03:44:10;6.40;;;2.93;;
3845;SDS011;1938;50.812;7.738;2022-07-19T03:46:36;11.53;;;3.23;;
3845;SDS011;1938;50.812;7.738;2022-07-19T03:49:01;4.57;;;3.13;;
3845;SDS011;1938;50.812;7.738;2022-07-19T03:51:27;7.07;;;3.47;;
3845;SDS011;1938;50.812;7.738;2022-07-19T03:53:53;10.77;;;3.20;;
3845;SDS011;1938;50.812;7.738;2022-07-19T03:56:18;4.10;;;2.77;;
3845;SDS011;1938;50.812;7.738;2022-07-19T03:58:45;6.90;;;2.53;;
3845;SDS011;1938;50.812;7.738;2022-07-19T04:01:13;8.83;;;2.90;;
3845;SDS011;1938;50.812;7.738;2022-07-19T04:03:39;4.63;;;3.23;;
3845;SDS011;1938;50.812;7.738;2022-07-19T04:06:07;7.83;;;3.93;;
3845;SDS011;1938;50.812;7.738;2022-07-19T04:08:35;5.00;;;2.80;;
3845;SDS011;1938;50.812;7.738;2022-07-19T04:11:01;4.70;;;3.30;;
3845;SDS011;1938;50.812;7.738;2022-07-19T04:13:28;8.93;;;3.70;;
3845;SDS011;1938;50.812;7.738;2022-07-19T04:15:54;6.80;;;3.60;;
3845;SDS011;1938;50.812;7.738;2022-07-19T04:18:19;5.80;;;3.30;;
3845;SDS011;1938;50.812;7.738;2022-07-19T04:20:45;7.13;;;3.27;;
3845;SDS011;1938;50.812;7.738;2022-07-19T04:23:10;4.73;;;2.83;;
3845;SDS011;1938;50.812;7.738;2022-07-19T04:25:36;4.33;;;3.10;;
3845;SDS011;1938;50.812;7.738;2022-07-19T04:28:02;6.50;;;3.10;;
3845;SDS011;1938;50.812;7.738;2022-07-19T04:30:28;4.00;;;2.50;;
3845;SDS011;1938;50.812;7.738;2022-07-19T04:32:54;6.10;;;2.60;;
3845;SDS011;1938;50.812;7.738;2022-07-19T04:35:20;6.47;;;3.10;;
3845;SDS011;1938;50.812;7.738;2022-07-19T04:37:46;3.90;;;3.00;;
3845;SDS011;1938;50.812;7.738;2022-07-19T04:40:12;5.60;;;3.07;;
3845;SDS011;1938;50.812;7.738;2022-07-19T04:42:38;8.90;;;3.00;;
3845;SDS011;1938;50.812;7.738;2022-07-19T04:45:04;4.20;;;3.07;;
3845;SDS011;1938;50.812;7.738;2022-07-19T04:47:30;4.40;;;2.50;;
3845;SDS011;1938;50.812;7.738;2022-07-19T04:49:56;9.70;;;2.60;;
3845;SDS011;1938;50.812;7.738;2022-07-19T04:52:22;8.77;;;2.70;;
3845;SDS011;1938;50.812;7.738;2022-07-19T04:54:47;3.37;;;2.57;;
3845;SDS011;1938;50.812;7.738;2022-07-19T04:57:13;5.53;;;2.93;;
3845;SDS011;1938;50.812;7.738;2022-07-19T04:59:39;5.27;;;3.17;;
3845;SDS011;1938;50.812;7.738;2022-07-19T05:02:05;7.67;;;2.80;;
3845;SDS011;1938;50.812;7.738;2022-07-19T05:04:31;4.53;;;2.90;;
3845;SDS011;1938;50.812;7.738;2022-07-19T05:06:57;9.00;;;3.03;;
3845;SDS011;1938;50.812;7.738;2022-07-19T05:09:23;5.30;;;2.73;;
3845;SDS011;1938;50.812;7.738;2022-07-19T05:11:50;15.00;;;2.50;;
3845;SDS011;1938;50.812;7.738;2022-07-19T05:14:16;8.23;;;2.80;;
3845;SDS011;1938;50.812;7.738;2022-07-19T05:16:42;4.73;;;3.23;;
3845;SDS011;1938;50.812;7.738;2022-07-19T05:19:08;4.67;;;2.80;;
3845;SDS011;1938;50.812;7.738;2022-07-19T05:21:33;4.27;;;2.77;;
3845;SDS011;1938;50.812;7.738;2022-07-19T05:23:59;4.33;;;2.57;;
3845;SDS011;1938;50.812;7.738;2022-07-19T05:26:25;9.70;;;2.60;;
3845;SDS011;1938;50.812;7.738;2022-07-19T05:28:50;4.77;;;2.50;;
3845;SDS011;1938;50.812;7.738;2022-07-19T05:31:16;7.63;;;2.57;;
3845;SDS011;1938;50.812;7.738;2022-07-19T05:33:41;4.20;;;2.80;;
3845;SDS011;1938;50.812;7.738;2022-07-19T05:36:07;5.10;;;3.43;;
3845;SDS011;1938;50.812;7.738;2022-07-19T05:38:36;3.80;;;2.73;;
3845;SDS011;1938;50.812;7.738;2022-07-19T05:41:03;6.00;;;2.87;;
3845;SDS011;1938;50.812;7.738;2022-07-19T05:43:29;2.73;;;2.13;;
3845;SDS011;1938;50.812;7.738;2022-07-19T05:45:54;9.37;;;3.17;;
3845;SDS011;1938;50.812;7.738;2022-07-19T05:48:20;4.73;;;2.37;;
3845;SDS011;1938;50.812;7.738;2022-07-19T05:50:45;4.10;;;2.63;;
3845;SDS011;1938;50.812;7.738;2022-07-19T05:53:11;4.03;;;2.33;;
3845;SDS011;1938;50.812;7.738;2022-07-19T05:55:37;7.80;;;2.50;;
3845;SDS011;1938;50.812;7.738;2022-07-19T05:58:02;5.50;;;2.97;;
3845;SDS011;1938;50.812;7.738;2022-07-19T06:00:28;4.43;;;2.00;;
3845;SDS011;1938;50.812;7.738;2022-07-19T06:02:54;5.07;;;2.53;;
3845;SDS011;1938;50.812;7.738;2022-07-19T06:05:19;8.53;;;3.00;;
3845;SDS011;1938;50.812;7.738;2022-07-19T06:07:45;4.93;;;3.23;;
3845;SDS011;1938;50.812;7.738;2022-07-19T06:10:10;3.67;;;2.30;;
3845;SDS011;1938;50.812;7.738;2022-07-19T06:12:36;4.80;;;2.23;;
3845;SDS011;1938;50.812;7.738;2022-07-19T06:15:02;2.60;;;2.20;;
3845;SDS011;1938;50.812;7.738;2022-07-19T06:17:28;2.90;;;1.70;;
3845;SDS011;1938;50.812;7.738;2022-07-19T06:19:54;7.07;;;2.33;;
3845;SDS011;1938;50.812;7.738;2022-07-19T06:22:19;4.13;;;2.60;;
3845;SDS011;1938;50.812;7.738;2022-07-19T06:24:45;3.00;;;2.17;;
3845;SDS011;1938;50.812;7.738;2022-07-19T06:27:10;8.27;;;1.93;;
3845;SDS011;1938;50.812;7.738;2022-07-19T06:29:36;5.00;;;2.37;;
3845;SDS011;1938;50.812;7.738;2022-07-19T06:32:02;2.20;;;1.90;;
3845;SDS011;1938;50.812;7.738;2022-07-19T06:34:28;3.60;;;2.13;;
3845;SDS011;1938;50.812;7.738;2022-07-19T06:36:53;2.13;;;1.80;;
3845;SDS011;1938;50.812;7.738;2022-07-19T06:39:19;2.20;;;2.00;;
3845;SDS011;1938;50.812;7.738;2022-07-19T06:41:44;4.40;;;2.27;;
3845;SDS011;1938;50.812;7.738;2022-07-19T06:44:11;2.37;;;2.17;;
3845;SDS011;1938;50.812;7.738;2022-07-19T06:46:37;4.80;;;1.97;;
3845;SDS011;1938;50.812;7.738;2022-07-19T06:49:04;4.87;;;2.20;;
3845;SDS011;1938;50.812;7.738;2022-07-19T06:51:29;3.00;;;2.07;;
3845;SDS011;1938;50.812;7.738;2022-07-19T06:53:55;3.10;;;2.23;;
3845;SDS011;1938;50.812;7.738;2022-07-19T06:56:20;1.83;;;1.70;;
3845;SDS011;1938;50.812;7.738;2022-07-19T06:58:46;1.83;;;1.60;;
3845;SDS011;1938;50.812;7.738;2022-07-19T07:01:12;4.20;;;1.77;;
3845;SDS011;1938;50.812;7.738;2022-07-19T07:03:38;5.73;;;2.40;;
3845;SDS011;1938;50.812;7.738;2022-07-19T07:06:04;3.33;;;2.40;;
3845;SDS011;1938;50.812;7.738;2022-07-19T07:08:30;8.87;;;1.90;;
3845;SDS011;1938;50.812;7.738;2022-07-19T07:10:55;3.07;;;1.80;;
3845;SDS011;1938;50.812;7.738;2022-07-19T07:13:21;5.83;;;1.63;;
3845;SDS011;1938;50.812;7.738;2022-07-19T07:15:47;3.60;;;1.57;;
3845;SDS011;1938;50.812;7.738;2022-07-19T07:18:12;3.23;;;1.70;;
3845;SDS011;1938;50.812;7.738;2022-07-19T07:20:39;2.20;;;2.00;;
3845;SDS011;1938;50.812;7.738;2022-07-19T07:23:04;4.03;;;1.77;;
3845;SDS011;1938;50.812;7.738;2022-07-19T07:25:30;1.93;;;1.40;;
3845;SDS011;1938;50.812;7.738;2022-07-19T07:27:56;2.17;;;1.80;;
3845;SDS011;1938;50.812;7.738;2022-07-19T07:30:21;3.47;;;1.37;;
3845;SDS011;1938;50.812;7.738;2022-07-19T07:32:47;3.70;;;1.83;;
3845;SDS011;1938;50.812;7.738;2022-07-19T07:35:13;1.87;;;1.77;;
3845;SDS011;1938;50.812;7.738;2022-07-19T07:37:38;1.97;;;1.77;;
3845;SDS011;1938;50.812;7.738;2022-07-19T07:40:04;3.00;;;2.03;;
3845;SDS011;1938;50.812;7.738;2022-07-19T07:42:31;1.73;;;1.60;;
3845;SDS011;1938;50.812;7.738;2022-07-19T07:44:58;3.40;;;1.63;;
3845;SDS011;1938;50.812;7.738;2022-07-19T07:47:25;6.73;;;1.93;;
3845;SDS011;1938;50.812;7.738;2022-07-19T07:49:50;3.17;;;1.40;;
3845;SDS011;1938;50.812;7.738;2022-07-19T07:52:16;3.00;;;1.73;;
3845;SDS011;1938;50.812;7.738;2022-07-19T07:54:42;2.03;;;1.50;;
3845;SDS011;1938;50.812;7.738;2022-07-19T07:57:07;2.50;;;1.60;;
3845;SDS011;1938;50.812;7.738;2022-07-19T07:59:33;2.60;;;1.60;;
3845;SDS011;1938;50.812;7.738;2022-07-19T08:01:59;2.77;;;1.30;;
3845;SDS011;1938;50.812;7.738;2022-07-19T08:04:25;2.70;;;1.70;;
3845;SDS011;1938;50.812;7.738;2022-07-19T08:06:51;2.67;;;1.47;;
3845;SDS011;1938;50.812;7.738;2022-07-19T08:09:17;2.37;;;1.80;;
3845;SDS011;1938;50.812;7.738;2022-07-19T08:11:43;4.10;;;1.63;;
3845;SDS011;1938;50.812;7.738;2022-07-19T08:14:08;2.00;;;1.30;;
3845;SDS011;1938;50.812;7.738;2022-07-19T08:16:34;1.60;;;1.47;;
3845;SDS011;1938;50.812;7.738;2022-07-19T08:18:59;2.33;;;1.70;;
3845;SDS011;1938;50.812;7.738;2022-07-19T08:21:25;1.90;;;1.30;;
3845;SDS011;1938;50.812;7.738;2022-07-19T08:23:51;2.13;;;2.03;;
3845;SDS011;1938;50.812;7.738;2022-07-19T08:26:18;3.80;;;1.53;;
3845;SDS011;1938;50.812;7.738;2022-07-19T08:28:44;1.93;;;1.73;;
3845;SDS011;1938;50.812;7.738;2022-07-19T08:31:12;1.67;;;1.30;;
3845;SDS011;1938;50.812;7.738;2022-07-19T08:33:38;1.40;;;1.30;;
3845;SDS011;1938;50.812;7.738;2022-07-19T08:36:05;1.93;;;1.00;;
3845;SDS011;1938;50.812;7.738;2022-07-19T08:38:31;1.53;;;1.30;;
3845;SDS011;1938;50.812;7.738;2022-07-19T08:40:56;1.73;;;1.40;;
3845;SDS011;1938;50.812;7.738;2022-07-19T08:43:24;5.07;;;1.27;;
3845;SDS011;1938;50.812;7.738;2022-07-19T08:45:51;1.10;;;1.10;;
3845;SDS011;1938;50.812;7.738;2022-07-19T08:48:18;1.63;;;1.00;;
3845;SDS011;1938;50.812;7.738;2022-07-19T08:50:44;1.40;;;1.27;;
3845;SDS011;1938;50.812;7.738;2022-07-19T08:53:11;2.23;;;1.13;;
3845;SDS011;1938;50.812;7.738;2022-07-19T08:55:37;2.70;;;1.20;;
3845;SDS011;1938;50.812;7.738;2022-07-19T08:58:02;2.70;;;1.37;;
3845;SDS011;1938;50.812;7.738;2022-07-19T09:00:29;3.33;;;1.90;;
3845;SDS011;1938;50.812;7.738;2022-07-19T09:05:23;2.60;;;1.50;;
3845;SDS011;1938;50.812;7.738;2022-07-19T09:07:59;1.60;;;1.50;;
3845;SDS011;1938;50.812;7.738;2022-07-19T09:10:38;2.37;;;1.40;;
3845;SDS011;1938;50.812;7.738;2022-07-19T09:15:52;1.30;;;1.20;;
3845;SDS011;1938;50.812;7.738;2022-07-19T09:20:52;2.67;;;1.30;;
3845;SDS011;1938;50.812;7.738;2022-07-19T09:23:19;3.67;;;1.17;;
3845;SDS011;1938;50.812;7.738;2022-07-19T09:25:46;3.43;;;1.47;;
3845;SDS011;1938;50.812;7.738;2022-07-19T09:28:17;3.73;;;1.30;;
3845;SDS011;1938;50.812;7.738;2022-07-19T09:30:45;3.53;;;1.50;;
3845;SDS011;1938;50.812;7.738;2022-07-19T09:33:27;4.37;;;1.70;;
3845;SDS011;1938;50.812;7.738;2022-07-19T09:35:55;2.20;;;1.20;;
3845;SDS011;1938;50.812;7.738;2022-07-19T09:40:53;4.30;;;1.70;;
3845;SDS011;1938;50.812;7.738;2022-07-19T09:43:49;1.30;;;1.20;;
3845;SDS011;1938;50.812;7.738;2022-07-19T09:46:28;5.40;;;1.40;;
3845;SDS011;1938;50.812;7.738;2022-07-19T09:49:02;3.63;;;1.40;;
3845;SDS011;1938;50.812;7.738;2022-07-19T09:51:33;3.33;;;1.63;;
3845;SDS011;1938;50.812;7.738;2022-07-19T09:54:01;4.70;;;1.60;;
3845;SDS011;1938;50.812;7.738;2022-07-19T09:56:29;3.00;;;1.30;;
3845;SDS011;1938;50.812;7.738;2022-07-19T09:58:56;2.17;;;1.57;;
3845;SDS011;1938;50.812;7.738;2022-07-19T10:01:23;1.57;;;1.40;;
3845;SDS011;1938;50.812;7.738;2022-07-19T10:03:50;3.90;;;1.60;;
3845;SDS011;1938;50.812;7.738;2022-07-19T10:06:19;2.80;;;1.73;;
3845;SDS011;1938;50.812;7.738;2022-07-19T10:08:45;4.10;;;1.70;;
3845;SDS011;1938;50.812;7.738;2022-07-19T10:11:11;1.97;;;1.73;;
3845;SDS011;1938;50.812;7.738;2022-07-19T10:13:37;5.13;;;1.90;;
3845;SDS011;1938;50.812;7.738;2022-07-19T10:16:04;2.90;;;1.57;;
3845;SDS011;1938;50.812;7.738;2022-07-19T10:18:40;1.93;;;1.50;;
3845;SDS011;1938;50.812;7.738;2022-07-19T10:21:19;5.97;;;1.60;;
3845;SDS011;1938;50.812;7.738;2022-07-19T10:23:52;3.70;;;1.57;;
3845;SDS011;1938;50.812;7.738;2022-07-19T10:26:37;4.70;;;2.00;;
3845;SDS011;1938;50.812;7.738;2022-07-19T10:29:17;3.60;;;1.70;;
3845;SDS011;1938;50.812;7.738;2022-07-19T10:31:43;4.00;;;1.60;;
3845;SDS011;1938;50.812;7.738;2022-07-19T10:34:28;3.73;;;1.87;;
3845;SDS011;1938;50.812;7.738;2022-07-19T10:36:54;10.13;;;2.00;;
3845;SDS011;1938;50.812;7.738;2022-07-19T10:39:30;5.73;;;1.77;;
3845;SDS011;1938;50.812;7.738;2022-07-19T10:42:03;2.43;;;1.77;;
3845;SDS011;1938;50.812;7.738;2022-07-19T10:52:34;5.37;;;2.17;;
3845;SDS011;1938;50.812;7.738;2022-07-19T11:00:25;2.83;;;1.80;;
3845;SDS011;1938;50.812;7.738;2022-07-19T11:02:53;5.83;;;1.83;;
3845;SDS011;1938;50.812;7.738;2022-07-19T11:05:54;9.00;;;1.87;;
3845;SDS011;1938;50.812;7.738;2022-07-19T11:08:32;4.03;;;2.00;;
3845;SDS011;1938;50.812;7.738;2022-07-19T11:11:03;3.47;;;2.07;;
3845;SDS011;1938;50.812;7.738;2022-07-19T11:13:35;4.80;;;2.00;;
3845;SDS011;1938;50.812;7.738;2022-07-19T11:16:02;5.73;;;2.10;;
3845;SDS011;1938;50.812;7.738;2022-07-19T11:18:28;3.83;;;1.70;;
3845;SDS011;1938;50.812;7.738;2022-07-19T11:20:58;2.30;;;2.10;;
3845;SDS011;1938;50.812;7.738;2022-07-19T11:23:27;4.50;;;2.10;;
3845;SDS011;1938;50.812;7.738;2022-07-19T11:26:04;2.70;;;2.00;;
3845;SDS011;1938;50.812;7.738;2022-07-19T11:28:31;3.60;;;2.23;;
3845;SDS011;1938;50.812;7.738;2022-07-19T11:30:57;5.20;;;2.30;;
3845;SDS011;1938;50.812;7.738;2022-07-19T11:33:23;2.47;;;2.03;;
3845;SDS011;1938;50.812;7.738;2022-07-19T11:36:06;2.60;;;2.10;;
3845;SDS011;1938;50.812;7.738;2022-07-19T11:38:43;5.10;;;2.07;;
3845;SDS011;1938;50.812;7.738;2022-07-19T11:43:55;5.03;;;2.40;;
3845;SDS011;1938;50.812;7.738;2022-07-19T11:46:25;9.50;;;2.50;;
3845;SDS011;1938;50.812;7.738;2022-07-19T11:48:55;3.93;;;2.13;;
3845;SDS011;1938;50.812;7.738;2022-07-19T11:51:22;2.23;;;1.90;;
3845;SDS011;1938;50.812;7.738;2022-07-19T11:53:49;4.50;;;2.70;;
3845;SDS011;1938;50.812;7.738;2022-07-19T11:56:23;9.13;;;2.70;;
3845;SDS011;1938;50.812;7.738;2022-07-19T11:58:51;6.43;;;3.07;;
3845;SDS011;1938;50.812;7.738;2022-07-19T12:01:22;3.80;;;2.47;;
3845;SDS011;1938;50.812;7.738;2022-07-19T12:04:00;4.40;;;2.30;;
3845;SDS011;1938;50.812;7.738;2022-07-19T12:06:34;4.00;;;2.40;;
3845;SDS011;1938;50.812;7.738;2022-07-19T12:09:04;5.07;;;1.97;;
3845;SDS011;1938;50.812;7.738;2022-07-19T12:19:40;3.40;;;2.27;;
3845;SDS011;1938;50.812;7.738;2022-07-19T12:22:25;5.10;;;2.30;;
3845;SDS011;1938;50.812;7.738;2022-07-19T12:24:52;2.80;;;2.20;;
3845;SDS011;1938;50.812;7.738;2022-07-19T12:27:17;4.93;;;2.47;;
3845;SDS011;1938;50.812;7.738;2022-07-19T12:29:44;13.43;;;3.23;;
3845;SDS011;1938;50.812;7.738;2022-07-19T12:32:15;4.80;;;2.17;;
3845;SDS011;1938;50.812;7.738;2022-07-19T12:34:55;6.30;;;2.47;;
3845;SDS011;1938;50.812;7.738;2022-07-19T12:37:24;5.53;;;2.43;;
3845;SDS011;1938;50.812;7.738;2022-07-19T12:42:43;3.53;;;2.80;;
3845;SDS011;1938;50.812;7.738;2022-07-19T12:45:26;9.90;;;3.50;;
3845;SDS011;1938;50.812;7.738;2022-07-19T12:47:53;7.50;;;2.63;;
3845;SDS011;1938;50.812;7.738;2022-07-19T12:50:23;4.70;;;2.73;;
3845;SDS011;1938;50.812;7.738;2022-07-19T12:52:54;4.03;;;2.63;;
3845;SDS011;1938;50.812;7.738;2022-07-19T12:55:22;9.50;;;2.70;;
3845;SDS011;1938;50.812;7.738;2022-07-19T12:57:49;6.87;;;2.87;;
3845;SDS011;1938;50.812;7.738;2022-07-19T13:00:16;5.73;;;2.60;;
3845;SDS011;1938;50.812;7.738;2022-07-19T13:02:43;4.47;;;3.03;;
3845;SDS011;1938;50.812;7.738;2022-07-19T13:05:10;3.50;;;2.83;;
3845;SDS011;1938;50.812;7.738;2022-07-19T13:07:36;3.80;;;2.47;;
3845;SDS011;1938;50.812;7.738;2022-07-19T13:10:02;3.70;;;2.77;;
3845;SDS011;1938;50.812;7.738;2022-07-19T13:12:28;4.63;;;2.33;;
3845;SDS011;1938;50.812;7.738;2022-07-19T13:14:54;3.93;;;2.40;;
3845;SDS011;1938;50.812;7.738;2022-07-19T13:17:19;7.03;;;2.30;;
3845;SDS011;1938;50.812;7.738;2022-07-19T13:19:45;5.93;;;2.73;;
3845;SDS011;1938;50.812;7.738;2022-07-19T13:22:10;7.70;;;2.70;;
3845;SDS011;1938;50.812;7.738;2022-07-19T13:24:36;3.70;;;2.13;;
3845;SDS011;1938;50.812;7.738;2022-07-19T13:27:02;5.50;;;2.10;;
3845;SDS011;1938;50.812;7.738;2022-07-19T13:29:27;3.73;;;1.97;;
3845;SDS011;1938;50.812;7.738;2022-07-19T13:31:53;8.10;;;2.73;;
3845;SDS011;1938;50.812;7.738;2022-07-19T13:34:19;7.23;;;2.80;;
3845;SDS011;1938;50.812;7.738;2022-07-19T13:36:44;4.37;;;2.60;;
3845;SDS011;1938;50.812;7.738;2022-07-19T13:39:10;2.33;;;2.13;;
3845;SDS011;1938;50.812;7.738;2022-07-19T13:41:37;3.03;;;2.47;;
3845;SDS011;1938;50.812;7.738;2022-07-19T13:44:04;14.07;;;2.80;;
3845;SDS011;1938;50.812;7.738;2022-07-19T13:46:30;6.70;;;2.70;;
3845;SDS011;1938;50.812;7.738;2022-07-19T13:48:57;4.47;;;2.67;;
3845;SDS011;1938;50.812;7.738;2022-07-19T13:51:22;7.50;;;2.77;;
3845;SDS011;1938;50.812;7.738;2022-07-19T13:53:48;10.23;;;2.43;;
3845;SDS011;1938;50.812;7.738;2022-07-19T13:56:15;3.30;;;2.30;;
3845;SDS011;1938;50.812;7.738;2022-07-19T13:58:40;5.07;;;2.60;;
3845;SDS011;1938;50.812;7.738;2022-07-19T14:01:06;3.40;;;2.27;;
3845;SDS011;1938;50.812;7.738;2022-07-19T14:03:31;3.80;;;2.47;;
3845;SDS011;1938;50.812;7.738;2022-07-19T14:05:57;13.40;;;2.60;;
3845;SDS011;1938;50.812;7.738;2022-07-19T14:08:23;8.10;;;2.70;;
3845;SDS011;1938;50.812;7.738;2022-07-19T14:10:49;4.10;;;2.20;;
3845;SDS011;1938;50.812;7.738;2022-07-19T14:13:14;3.57;;;2.20;;
3845;SDS011;1938;50.812;7.738;2022-07-19T14:15:40;4.70;;;2.33;;
3845;SDS011;1938;50.812;7.738;2022-07-19T14:18:07;2.13;;;1.93;;
3845;SDS011;1938;50.812;7.738;2022-07-19T14:20:34;2.63;;;2.07;;
3845;SDS011;1938;50.812;7.738;2022-07-19T14:22:59;9.23;;;2.50;;
3845;SDS011;1938;50.812;7.738;2022-07-19T14:25:25;6.07;;;2.53;;
3845;SDS011;1938;50.812;7.738;2022-07-19T14:27:51;3.43;;;2.10;;
3845;SDS011;1938;50.812;7.738;2022-07-19T14:30:16;4.60;;;2.23;;
3845;SDS011;1938;50.812;7.738;2022-07-19T14:32:42;4.80;;;2.20;;
3845;SDS011;1938;50.812;7.738;2022-07-19T14:35:08;3.40;;;2.17;;
3845;SDS011;1938;50.812;7.738;2022-07-19T14:37:34;3.73;;;2.03;;
3845;SDS011;1938;50.812;7.738;2022-07-19T14:39:59;3.50;;;2.10;;
3845;SDS011;1938;50.812;7.738;2022-07-19T14:42:25;3.30;;;2.40;;
3845;SDS011;1938;50.812;7.738;2022-07-19T14:44:54;9.47;;;2.80;;
3845;SDS011;1938;50.812;7.738;2022-07-19T14:47:21;3.30;;;2.30;;
3845;SDS011;1938;50.812;7.738;2022-07-19T14:49:46;5.70;;;2.67;;
3845;SDS011;1938;50.812;7.738;2022-07-19T14:52:12;3.70;;;2.17;;
3845;SDS011;1938;50.812;7.738;2022-07-19T14:54:37;4.60;;;2.60;;
3845;SDS011;1938;50.812;7.738;2022-07-19T14:57:03;5.63;;;2.67;;
3845;SDS011;1938;50.812;7.738;2022-07-19T14:59:28;7.40;;;3.03;;
3845;SDS011;1938;50.812;7.738;2022-07-19T15:01:54;6.97;;;2.70;;
3845;SDS011;1938;50.812;7.738;2022-07-19T15:04:20;8.83;;;2.60;;
3845;SDS011;1938;50.812;7.738;2022-07-19T15:06:45;6.07;;;2.13;;
3845;SDS011;1938;50.812;7.738;2022-07-19T15:09:12;3.40;;;3.03;;
3845;SDS011;1938;50.812;7.738;2022-07-19T15:11:38;15.60;;;2.90;;
3845;SDS011;1938;50.812;7.738;2022-07-19T15:14:04;5.20;;;2.67;;
3845;SDS011;1938;50.812;7.738;2022-07-19T15:16:30;7.07;;;2.90;;
3845;SDS011;1938;50.812;7.738;2022-07-19T15:18:56;6.23;;;2.70;;
3845;SDS011;1938;50.812;7.738;2022-07-19T15:21:22;3.10;;;2.03;;
3845;SDS011;1938;50.812;7.738;2022-07-19T15:23:47;5.50;;;2.43;;
3845;SDS011;1938;50.812;7.738;2022-07-19T15:26:13;14.17;;;2.97;;
3845;SDS011;1938;50.812;7.738;2022-07-19T15:28:39;9.10;;;2.60;;
3845;SDS011;1938;50.812;7.738;2022-07-19T15:31:05;4.50;;;3.00;;
3845;SDS011;1938;50.812;7.738;2022-07-19T15:33:30;5.93;;;2.90;;
3845;SDS011;1938;50.812;7.738;2022-07-19T15:35:57;6.30;;;3.10;;
3845;SDS011;1938;50.812;7.738;2022-07-19T15:38:23;6.23;;;2.67;;
3845;SDS011;1938;50.812;7.738;2022-07-19T15:40:49;4.37;;;2.03;;
3845;SDS011;1938;50.812;7.738;2022-07-19T15:43:15;4.07;;;2.50;;
3845;SDS011;1938;50.812;7.738;2022-07-19T15:45:41;7.83;;;2.90;;
3845;SDS011;1938;50.812;7.738;2022-07-19T15:48:07;6.50;;;2.40;;
3845;SDS011;1938;50.812;7.738;2022-07-19T15:50:33;8.20;;;2.90;;